sensor_id;sensor_type;location;lat;lon;timestamp;temperature;humidity
6293;DHT22;3179;54.350;10.102;2022-11-03T00:01:10;11.70;99.90
6293;DHT22;3179;54.350;10.102;2022-11-03T00:03:37;11.70;99.90
6293;DHT22;3179;54.350;10.102;2022-11-03T00:06:05;11.70;99.90
6293;DHT22;3179;54.350;10.102;2022-11-03T00:08:34;11.70;99.90
6293;DHT22;3179;54.350;10.102;2022-11-03T00:11:02;11.70;99.90
6293;DHT22;3179;54.350;10.102;2022-11-03T00:13:29;11.70;99.90
6293;DHT22;3179;54.350;10.102;2022-11-03T00:15:56;11.70;99.90
6293;DHT22;3179;54.350;10.102;2022-11-03T00:18:23;11.70;99.90
6293;DHT22;3179;54.350;10.102;2022-11-03T00:20:55;11.70;99.90
6293;DHT22;3179;54.350;10.102;2022-11-03T00:23:26;11.70;99.90
6293;DHT22;3179;54.350;10.102;2022-11-03T00:25:53;11.70;99.90
6293;DHT22;3179;54.350;10.102;2022-11-03T00:28:19;11.70;99.90
6293;DHT22;3179;54.350;10.102;2022-11-03T00:30:46;11.70;99.90
6293;DHT22;3179;54.350;10.102;2022-11-03T00:33:13;11.70;99.90
6293;DHT22;3179;54.350;10.102;2022-11-03T00:35:40;11.70;99.90
6293;DHT22;3179;54.350;10.102;2022-11-03T00:38:06;11.70;99.90
6293;DHT22;3179;54.350;10.102;2022-11-03T00:40:34;11.70;99.90
6293;DHT22;3179;54.350;10.102;2022-11-03T00:43:01;11.70;99.90
6293;DHT22;3179;54.350;10.102;2022-11-03T00:45:28;11.70;99.90
6293;DHT22;3179;54.350;10.102;2022-11-03T00:47:55;11.70;99.90
6293;DHT22;3179;54.350;10.102;2022-11-03T00:50:35;11.70;99.90
6293;DHT22;3179;54.350;10.102;2022-11-03T00:53:02;11.70;99.90
6293;DHT22;3179;54.350;10.102;2022-11-03T00:55:29;11.70;99.90
6293;DHT22;3179;54.350;10.102;2022-11-03T00:57:57;11.70;99.90
6293;DHT22;3179;54.350;10.102;2022-11-03T01:00:24;11.70;99.90
6293;DHT22;3179;54.350;10.102;2022-11-03T01:02:50;11.60;99.90
6293;DHT22;3179;54.350;10.102;2022-11-03T01:05:17;11.60;99.90
6293;DHT22;3179;54.350;10.102;2022-11-03T01:08:13;11.60;99.90
6293;DHT22;3179;54.350;10.102;2022-11-03T01:10:40;11.60;99.90
6293;DHT22;3179;54.350;10.102;2022-11-03T01:13:28;11.60;99.90
6293;DHT22;3179;54.350;10.102;2022-11-03T01:15:56;11.60;99.90
6293;DHT22;3179;54.350;10.102;2022-11-03T01:18:24;11.60;99.90
6293;DHT22;3179;54.350;10.102;2022-11-03T01:20:54;11.60;99.90
6293;DHT22;3179;54.350;10.102;2022-11-03T01:23:21;11.60;99.90
6293;DHT22;3179;54.350;10.102;2022-11-03T01:25:48;11.60;99.90
6293;DHT22;3179;54.350;10.102;2022-11-03T01:28:15;11.60;99.90
6293;DHT22;3179;54.350;10.102;2022-11-03T01:30:43;11.60;99.90
6293;DHT22;3179;54.350;10.102;2022-11-03T01:33:10;11.60;99.90
6293;DHT22;3179;54.350;10.102;2022-11-03T01:35:37;11.60;99.90
6293;DHT22;3179;54.350;10.102;2022-11-03T01:38:04;11.60;99.90
6293;DHT22;3179;54.350;10.102;2022-11-03T01:40:31;11.60;99.90
6293;DHT22;3179;54.350;10.102;2022-11-03T01:43:16;11.60;99.90
6293;DHT22;3179;54.350;10.102;2022-11-03T01:45:45;11.60;99.90
6293;DHT22;3179;54.350;10.102;2022-11-03T01:48:12;11.60;99.90
6293;DHT22;3179;54.350;10.102;2022-11-03T01:50:39;11.60;99.90
6293;DHT22;3179;54.350;10.102;2022-11-03T01:53:09;11.60;99.90
6293;DHT22;3179;54.350;10.102;2022-11-03T01:55:37;11.60;99.90
6293;DHT22;3179;54.350;10.102;2022-11-03T01:58:09;11.60;99.90
6293;DHT22;3179;54.350;10.102;2022-11-03T02:00:37;11.60;99.90
6293;DHT22;3179;54.350;10.102;2022-11-03T02:03:08;11.60;99.90
6293;DHT22;3179;54.350;10.102;2022-11-03T02:05:35;11.60;99.90
6293;DHT22;3179;54.350;10.102;2022-11-03T02:08:05;11.60;99.90
6293;DHT22;3179;54.350;10.102;2022-11-03T02:10:34;11.60;99.90
6293;DHT22;3179;54.350;10.102;2022-11-03T02:13:02;11.60;99.90
6293;DHT22;3179;54.350;10.102;2022-11-03T02:15:31;11.60;99.90
6293;DHT22;3179;54.350;10.102;2022-11-03T02:17:59;11.60;99.90
6293;DHT22;3179;54.350;10.102;2022-11-03T02:20:30;11.60;99.90
6293;DHT22;3179;54.350;10.102;2022-11-03T02:23:08;11.60;99.90
6293;DHT22;3179;54.350;10.102;2022-11-03T02:25:45;11.60;99.90
6293;DHT22;3179;54.350;10.102;2022-11-03T02:28:15;11.60;99.90
6293;DHT22;3179;54.350;10.102;2022-11-03T02:30:45;11.60;99.90
6293;DHT22;3179;54.350;10.102;2022-11-03T02:33:23;11.60;99.90
6293;DHT22;3179;54.350;10.102;2022-11-03T02:35:58;11.60;99.90
6293;DHT22;3179;54.350;10.102;2022-11-03T02:38:27;11.60;99.90
6293;DHT22;3179;54.350;10.102;2022-11-03T02:40:58;11.60;99.90
6293;DHT22;3179;54.350;10.102;2022-11-03T02:43:27;11.60;99.90
6293;DHT22;3179;54.350;10.102;2022-11-03T02:45:54;11.60;99.90
6293;DHT22;3179;54.350;10.102;2022-11-03T02:48:21;11.60;99.90
6293;DHT22;3179;54.350;10.102;2022-11-03T02:50:48;11.50;99.90
6293;DHT22;3179;54.350;10.102;2022-11-03T02:53:15;11.60;99.90
6293;DHT22;3179;54.350;10.102;2022-11-03T02:55:47;11.60;99.90
6293;DHT22;3179;54.350;10.102;2022-11-03T02:58:22;11.60;99.90
6293;DHT22;3179;54.350;10.102;2022-11-03T03:00:53;11.50;99.90
6293;DHT22;3179;54.350;10.102;2022-11-03T03:03:24;11.50;99.90
6293;DHT22;3179;54.350;10.102;2022-11-03T03:05:55;11.50;99.90
6293;DHT22;3179;54.350;10.102;2022-11-03T03:08:24;11.50;99.90
6293;DHT22;3179;54.350;10.102;2022-11-03T03:10:52;11.60;99.90
6293;DHT22;3179;54.350;10.102;2022-11-03T03:13:21;11.50;99.90
6293;DHT22;3179;54.350;10.102;2022-11-03T03:16:01;11.50;99.90
6293;DHT22;3179;54.350;10.102;2022-11-03T03:18:38;11.50;99.90
6293;DHT22;3179;54.350;10.102;2022-11-03T03:21:11;11.50;99.90
6293;DHT22;3179;54.350;10.102;2022-11-03T03:23:43;11.50;99.90
6293;DHT22;3179;54.350;10.102;2022-11-03T03:26:18;11.50;99.90
6293;DHT22;3179;54.350;10.102;2022-11-03T03:28:52;11.50;99.90
6293;DHT22;3179;54.350;10.102;2022-11-03T03:31:19;11.50;99.90
6293;DHT22;3179;54.350;10.102;2022-11-03T03:33:50;11.50;99.90
6293;DHT22;3179;54.350;10.102;2022-11-03T03:36:19;11.50;99.90
6293;DHT22;3179;54.350;10.102;2022-11-03T03:38:51;11.50;99.90
6293;DHT22;3179;54.350;10.102;2022-11-03T03:41:19;11.50;99.90
6293;DHT22;3179;54.350;10.102;2022-11-03T03:43:50;11.50;99.90
6293;DHT22;3179;54.350;10.102;2022-11-03T03:46:20;11.50;99.90
6293;DHT22;3179;54.350;10.102;2022-11-03T03:48:47;11.50;99.90
6293;DHT22;3179;54.350;10.102;2022-11-03T03:51:17;11.50;99.90
6293;DHT22;3179;54.350;10.102;2022-11-03T03:53:49;11.50;99.90
6293;DHT22;3179;54.350;10.102;2022-11-03T03:56:16;11.50;99.90
6293;DHT22;3179;54.350;10.102;2022-11-03T03:58:44;11.50;99.90
6293;DHT22;3179;54.350;10.102;2022-11-03T04:01:12;11.50;99.90
6293;DHT22;3179;54.350;10.102;2022-11-03T04:03:39;11.40;99.90
6293;DHT22;3179;54.350;10.102;2022-11-03T04:06:06;11.50;99.90
6293;DHT22;3179;54.350;10.102;2022-11-03T04:08:33;11.50;99.90
6293;DHT22;3179;54.350;10.102;2022-11-03T04:11:00;11.50;99.90
6293;DHT22;3179;54.350;10.102;2022-11-03T04:13:44;11.50;99.90
6293;DHT22;3179;54.350;10.102;2022-11-03T04:16:30;11.40;99.90
6293;DHT22;3179;54.350;10.102;2022-11-03T04:19:14;11.40;99.90
6293;DHT22;3179;54.350;10.102;2022-11-03T04:21:58;11.40;99.90
6293;DHT22;3179;54.350;10.102;2022-11-03T04:24:44;11.40;99.90
6293;DHT22;3179;54.350;10.102;2022-11-03T04:27:28;11.40;99.90
6293;DHT22;3179;54.350;10.102;2022-11-03T04:29:58;11.40;99.90
6293;DHT22;3179;54.350;10.102;2022-11-03T04:32:28;11.40;99.90
6293;DHT22;3179;54.350;10.102;2022-11-03T04:34:55;11.40;99.90
6293;DHT22;3179;54.350;10.102;2022-11-03T04:37:26;11.40;99.90
6293;DHT22;3179;54.350;10.102;2022-11-03T04:39:55;11.40;99.90
6293;DHT22;3179;54.350;10.102;2022-11-03T04:42:24;11.40;99.90
6293;DHT22;3179;54.350;10.102;2022-11-03T04:44:51;11.40;99.90
6293;DHT22;3179;54.350;10.102;2022-11-03T04:47:18;11.40;99.90
6293;DHT22;3179;54.350;10.102;2022-11-03T04:49:46;11.40;99.90
6293;DHT22;3179;54.350;10.102;2022-11-03T04:52:16;11.40;99.90
6293;DHT22;3179;54.350;10.102;2022-11-03T04:54:44;11.40;99.90
6293;DHT22;3179;54.350;10.102;2022-11-03T04:57:13;11.40;99.90
6293;DHT22;3179;54.350;10.102;2022-11-03T04:59:42;11.40;99.90
6293;DHT22;3179;54.350;10.102;2022-11-03T05:02:13;11.40;99.90
6293;DHT22;3179;54.350;10.102;2022-11-03T05:04:41;11.40;99.90
6293;DHT22;3179;54.350;10.102;2022-11-03T05:07:20;11.40;99.90
6293;DHT22;3179;54.350;10.102;2022-11-03T05:09:48;11.30;99.90
6293;DHT22;3179;54.350;10.102;2022-11-03T05:12:15;11.30;99.90
6293;DHT22;3179;54.350;10.102;2022-11-03T05:14:43;11.30;99.90
6293;DHT22;3179;54.350;10.102;2022-11-03T05:17:20;11.30;99.90
6293;DHT22;3179;54.350;10.102;2022-11-03T05:19:48;11.30;99.90
6293;DHT22;3179;54.350;10.102;2022-11-03T05:22:19;11.30;99.90
6293;DHT22;3179;54.350;10.102;2022-11-03T05:24:49;11.30;99.90
6293;DHT22;3179;54.350;10.102;2022-11-03T05:27:19;11.30;99.90
6293;DHT22;3179;54.350;10.102;2022-11-03T05:29:47;11.30;99.90
6293;DHT22;3179;54.350;10.102;2022-11-03T05:32:20;11.30;99.90
6293;DHT22;3179;54.350;10.102;2022-11-03T05:34:49;11.30;99.90
6293;DHT22;3179;54.350;10.102;2022-11-03T05:37:24;11.30;99.90
6293;DHT22;3179;54.350;10.102;2022-11-03T05:39:54;11.20;99.90
6293;DHT22;3179;54.350;10.102;2022-11-03T05:42:33;11.20;99.90
6293;DHT22;3179;54.350;10.102;2022-11-03T05:45:02;11.30;99.90
6293;DHT22;3179;54.350;10.102;2022-11-03T05:47:33;11.30;99.90
6293;DHT22;3179;54.350;10.102;2022-11-03T05:50:10;11.30;99.90
6293;DHT22;3179;54.350;10.102;2022-11-03T05:52:40;11.20;99.90
6293;DHT22;3179;54.350;10.102;2022-11-03T05:55:18;11.20;99.90
6293;DHT22;3179;54.350;10.102;2022-11-03T05:57:46;11.30;99.90
6293;DHT22;3179;54.350;10.102;2022-11-03T06:00:24;11.30;99.90
6293;DHT22;3179;54.350;10.102;2022-11-03T06:02:52;11.30;99.90
6293;DHT22;3179;54.350;10.102;2022-11-03T06:05:21;11.30;99.90
6293;DHT22;3179;54.350;10.102;2022-11-03T06:07:52;11.30;99.90
6293;DHT22;3179;54.350;10.102;2022-11-03T06:10:24;11.30;99.90
6293;DHT22;3179;54.350;10.102;2022-11-03T06:12:55;11.20;99.90
6293;DHT22;3179;54.350;10.102;2022-11-03T06:15:30;11.20;99.90
6293;DHT22;3179;54.350;10.102;2022-11-03T06:17:58;11.20;99.90
6293;DHT22;3179;54.350;10.102;2022-11-03T06:20:26;11.20;99.90
6293;DHT22;3179;54.350;10.102;2022-11-03T06:22:55;11.20;99.90
6293;DHT22;3179;54.350;10.102;2022-11-03T06:25:26;11.20;99.90
6293;DHT22;3179;54.350;10.102;2022-11-03T06:27:54;11.20;99.90
6293;DHT22;3179;54.350;10.102;2022-11-03T06:30:25;11.30;99.90
6293;DHT22;3179;54.350;10.102;2022-11-03T06:32:53;11.30;99.90
6293;DHT22;3179;54.350;10.102;2022-11-03T06:35:23;11.20;99.90
6293;DHT22;3179;54.350;10.102;2022-11-03T06:37:50;11.30;99.90
6293;DHT22;3179;54.350;10.102;2022-11-03T06:40:35;11.20;99.90
6293;DHT22;3179;54.350;10.102;2022-11-03T06:43:24;11.20;99.90
6293;DHT22;3179;54.350;10.102;2022-11-03T06:45:56;11.20;99.90
6293;DHT22;3179;54.350;10.102;2022-11-03T06:48:25;11.20;99.90
6293;DHT22;3179;54.350;10.102;2022-11-03T06:50:53;11.20;99.90
6293;DHT22;3179;54.350;10.102;2022-11-03T06:53:23;11.20;99.90
6293;DHT22;3179;54.350;10.102;2022-11-03T06:55:53;11.30;99.90
6293;DHT22;3179;54.350;10.102;2022-11-03T06:58:26;11.30;99.90
6293;DHT22;3179;54.350;10.102;2022-11-03T07:00:54;11.30;99.90
6293;DHT22;3179;54.350;10.102;2022-11-03T07:03:24;11.30;99.90
6293;DHT22;3179;54.350;10.102;2022-11-03T07:05:57;11.30;99.90
6293;DHT22;3179;54.350;10.102;2022-11-03T07:08:27;11.30;99.90
6293;DHT22;3179;54.350;10.102;2022-11-03T07:11:02;11.30;99.90
6293;DHT22;3179;54.350;10.102;2022-11-03T07:13:31;11.30;99.90
6293;DHT22;3179;54.350;10.102;2022-11-03T07:15:59;11.40;99.90
6293;DHT22;3179;54.350;10.102;2022-11-03T07:18:30;11.30;99.90
6293;DHT22;3179;54.350;10.102;2022-11-03T07:21:05;11.40;99.90
6293;DHT22;3179;54.350;10.102;2022-11-03T07:23:32;11.40;99.90
6293;DHT22;3179;54.350;10.102;2022-11-03T07:26:00;11.40;99.90
6293;DHT22;3179;54.350;10.102;2022-11-03T07:28:30;11.40;99.90
6293;DHT22;3179;54.350;10.102;2022-11-03T07:30:59;11.40;99.90
6293;DHT22;3179;54.350;10.102;2022-11-03T07:33:29;11.40;99.90
6293;DHT22;3179;54.350;10.102;2022-11-03T07:35:57;11.40;99.90
6293;DHT22;3179;54.350;10.102;2022-11-03T07:38:27;11.40;99.90
6293;DHT22;3179;54.350;10.102;2022-11-03T07:40:56;11.50;99.90
6293;DHT22;3179;54.350;10.102;2022-11-03T07:43:28;11.50;99.90
6293;DHT22;3179;54.350;10.102;2022-11-03T07:45:58;11.50;99.90
6293;DHT22;3179;54.350;10.102;2022-11-03T07:48:34;11.50;99.90
6293;DHT22;3179;54.350;10.102;2022-11-03T07:51:14;11.50;99.90
6293;DHT22;3179;54.350;10.102;2022-11-03T07:53:42;11.50;99.90
6293;DHT22;3179;54.350;10.102;2022-11-03T07:56:18;11.50;99.90
6293;DHT22;3179;54.350;10.102;2022-11-03T07:58:47;11.60;99.90
6293;DHT22;3179;54.350;10.102;2022-11-03T08:01:22;11.60;99.90
6293;DHT22;3179;54.350;10.102;2022-11-03T08:03:50;11.60;99.90
6293;DHT22;3179;54.350;10.102;2022-11-03T08:06:18;11.60;99.90
6293;DHT22;3179;54.350;10.102;2022-11-03T08:08:45;11.60;99.90
6293;DHT22;3179;54.350;10.102;2022-11-03T08:11:11;11.60;99.90
6293;DHT22;3179;54.350;10.102;2022-11-03T08:13:38;11.70;99.90
6293;DHT22;3179;54.350;10.102;2022-11-03T08:16:07;11.70;99.90
6293;DHT22;3179;54.350;10.102;2022-11-03T08:18:33;11.70;99.90
6293;DHT22;3179;54.350;10.102;2022-11-03T08:21:01;11.70;99.90
6293;DHT22;3179;54.350;10.102;2022-11-03T08:23:28;11.70;99.90
6293;DHT22;3179;54.350;10.102;2022-11-03T08:25:55;11.70;99.90
6293;DHT22;3179;54.350;10.102;2022-11-03T08:28:22;11.70;99.90
6293;DHT22;3179;54.350;10.102;2022-11-03T08:30:48;11.80;99.90
6293;DHT22;3179;54.350;10.102;2022-11-03T08:33:17;11.80;99.90
6293;DHT22;3179;54.350;10.102;2022-11-03T08:35:43;11.80;99.90
6293;DHT22;3179;54.350;10.102;2022-11-03T08:38:10;11.80;99.90
6293;DHT22;3179;54.350;10.102;2022-11-03T08:40:37;11.80;99.90
6293;DHT22;3179;54.350;10.102;2022-11-03T08:43:04;11.80;99.90
6293;DHT22;3179;54.350;10.102;2022-11-03T08:45:31;11.90;99.90
6293;DHT22;3179;54.350;10.102;2022-11-03T08:47:57;11.90;99.90
6293;DHT22;3179;54.350;10.102;2022-11-03T08:50:25;11.90;99.90
6293;DHT22;3179;54.350;10.102;2022-11-03T08:52:52;11.90;99.90
6293;DHT22;3179;54.350;10.102;2022-11-03T08:55:19;12.00;99.90
6293;DHT22;3179;54.350;10.102;2022-11-03T08:57:46;12.00;99.90
6293;DHT22;3179;54.350;10.102;2022-11-03T09:00:13;12.00;99.90
6293;DHT22;3179;54.350;10.102;2022-11-03T09:02:42;12.00;99.90
6293;DHT22;3179;54.350;10.102;2022-11-03T09:05:09;12.10;99.90
6293;DHT22;3179;54.350;10.102;2022-11-03T09:07:38;12.10;99.90
6293;DHT22;3179;54.350;10.102;2022-11-03T09:10:06;12.10;99.90
6293;DHT22;3179;54.350;10.102;2022-11-03T09:12:33;12.20;99.90
6293;DHT22;3179;54.350;10.102;2022-11-03T09:15:00;12.20;99.90
6293;DHT22;3179;54.350;10.102;2022-11-03T09:17:27;12.20;99.90
6293;DHT22;3179;54.350;10.102;2022-11-03T09:19:54;12.20;99.90
6293;DHT22;3179;54.350;10.102;2022-11-03T09:22:21;12.20;99.90
6293;DHT22;3179;54.350;10.102;2022-11-03T09:24:49;12.20;99.90
6293;DHT22;3179;54.350;10.102;2022-11-03T09:27:16;12.20;99.90
6293;DHT22;3179;54.350;10.102;2022-11-03T09:29:42;12.30;99.90
6293;DHT22;3179;54.350;10.102;2022-11-03T09:32:09;12.30;99.90
6293;DHT22;3179;54.350;10.102;2022-11-03T09:34:36;12.30;99.90
6293;DHT22;3179;54.350;10.102;2022-11-03T09:37:03;12.40;99.90
6293;DHT22;3179;54.350;10.102;2022-11-03T09:39:30;12.50;99.90
6293;DHT22;3179;54.350;10.102;2022-11-03T09:41:59;12.50;99.90
6293;DHT22;3179;54.350;10.102;2022-11-03T09:44:28;12.60;99.90
6293;DHT22;3179;54.350;10.102;2022-11-03T09:46:57;12.60;99.90
6293;DHT22;3179;54.350;10.102;2022-11-03T09:49:25;12.70;99.90
6293;DHT22;3179;54.350;10.102;2022-11-03T09:51:52;12.70;99.90
6293;DHT22;3179;54.350;10.102;2022-11-03T09:54:20;12.70;99.90
6293;DHT22;3179;54.350;10.102;2022-11-03T09:56:47;12.70;99.90
6293;DHT22;3179;54.350;10.102;2022-11-03T09:59:16;12.80;99.90
6293;DHT22;3179;54.350;10.102;2022-11-03T10:01:45;12.80;99.90
6293;DHT22;3179;54.350;10.102;2022-11-03T10:04:15;12.80;99.90
6293;DHT22;3179;54.350;10.102;2022-11-03T10:06:42;12.80;99.90
6293;DHT22;3179;54.350;10.102;2022-11-03T10:09:13;12.80;99.90
6293;DHT22;3179;54.350;10.102;2022-11-03T10:11:42;12.80;99.90
6293;DHT22;3179;54.350;10.102;2022-11-03T10:14:11;12.90;99.90
6293;DHT22;3179;54.350;10.102;2022-11-03T10:16:41;12.90;99.90
6293;DHT22;3179;54.350;10.102;2022-11-03T10:19:09;12.80;99.90
6293;DHT22;3179;54.350;10.102;2022-11-03T10:21:37;12.90;99.90
6293;DHT22;3179;54.350;10.102;2022-11-03T10:24:05;12.90;99.90
6293;DHT22;3179;54.350;10.102;2022-11-03T10:26:42;12.90;99.90
6293;DHT22;3179;54.350;10.102;2022-11-03T10:29:16;12.90;99.90
6293;DHT22;3179;54.350;10.102;2022-11-03T10:31:47;12.90;99.90
6293;DHT22;3179;54.350;10.102;2022-11-03T10:34:27;13.00;99.90
6293;DHT22;3179;54.350;10.102;2022-11-03T10:37:15;13.00;99.90
6293;DHT22;3179;54.350;10.102;2022-11-03T10:39:45;13.00;99.90
6293;DHT22;3179;54.350;10.102;2022-11-03T10:42:17;13.10;99.90
6293;DHT22;3179;54.350;10.102;2022-11-03T10:44:45;13.10;99.90
6293;DHT22;3179;54.350;10.102;2022-11-03T10:47:30;13.10;99.90
6293;DHT22;3179;54.350;10.102;2022-11-03T10:49:57;13.10;99.90
6293;DHT22;3179;54.350;10.102;2022-11-03T10:52:26;13.20;99.90
6293;DHT22;3179;54.350;10.102;2022-11-03T10:54:56;13.20;99.90
6293;DHT22;3179;54.350;10.102;2022-11-03T10:57:23;13.20;99.90
6293;DHT22;3179;54.350;10.102;2022-11-03T10:59:51;13.20;99.90
6293;DHT22;3179;54.350;10.102;2022-11-03T11:02:21;13.20;99.90
6293;DHT22;3179;54.350;10.102;2022-11-03T11:04:53;13.30;99.90
6293;DHT22;3179;54.350;10.102;2022-11-03T11:07:23;13.30;99.90
6293;DHT22;3179;54.350;10.102;2022-11-03T11:09:52;13.40;99.90
6293;DHT22;3179;54.350;10.102;2022-11-03T11:12:22;13.40;99.90
6293;DHT22;3179;54.350;10.102;2022-11-03T11:14:56;13.40;99.90
6293;DHT22;3179;54.350;10.102;2022-11-03T11:17:42;13.40;99.90
6293;DHT22;3179;54.350;10.102;2022-11-03T11:20:31;13.40;99.90
6293;DHT22;3179;54.350;10.102;2022-11-03T11:26:16;13.40;99.90
6293;DHT22;3179;54.350;10.102;2022-11-03T11:28:44;13.50;99.90
6293;DHT22;3179;54.350;10.102;2022-11-03T11:31:28;13.50;99.90
6293;DHT22;3179;54.350;10.102;2022-11-03T11:37:33;13.60;99.90
6293;DHT22;3179;54.350;10.102;2022-11-03T11:40:02;13.60;99.90
6293;DHT22;3179;54.350;10.102;2022-11-03T11:42:29;13.60;99.90
6293;DHT22;3179;54.350;10.102;2022-11-03T11:44:57;13.60;99.90
6293;DHT22;3179;54.350;10.102;2022-11-03T11:47:28;13.70;99.90
6293;DHT22;3179;54.350;10.102;2022-11-03T11:50:16;13.70;99.90
6293;DHT22;3179;54.350;10.102;2022-11-03T11:52:48;13.70;99.90
6293;DHT22;3179;54.350;10.102;2022-11-03T11:55:17;13.70;99.90
6293;DHT22;3179;54.350;10.102;2022-11-03T11:57:46;13.70;99.90
6293;DHT22;3179;54.350;10.102;2022-11-03T12:00:20;13.70;99.90
6293;DHT22;3179;54.350;10.102;2022-11-03T12:02:48;13.70;99.90
6293;DHT22;3179;54.350;10.102;2022-11-03T12:05:21;13.80;99.90
6293;DHT22;3179;54.350;10.102;2022-11-03T12:07:49;13.80;99.90
6293;DHT22;3179;54.350;10.102;2022-11-03T12:10:18;13.80;99.90
6293;DHT22;3179;54.350;10.102;2022-11-03T12:12:47;13.80;99.90
6293;DHT22;3179;54.350;10.102;2022-11-03T12:15:48;13.80;99.90
6293;DHT22;3179;54.350;10.102;2022-11-03T12:18:33;13.80;99.90
6293;DHT22;3179;54.350;10.102;2022-11-03T12:21:00;13.80;99.90
6293;DHT22;3179;54.350;10.102;2022-11-03T12:23:43;13.80;99.90
6293;DHT22;3179;54.350;10.102;2022-11-03T12:26:15;13.80;99.90
6293;DHT22;3179;54.350;10.102;2022-11-03T12:28:43;13.80;99.90
6293;DHT22;3179;54.350;10.102;2022-11-03T12:31:10;13.80;99.90
6293;DHT22;3179;54.350;10.102;2022-11-03T12:33:37;13.70;99.90
6293;DHT22;3179;54.350;10.102;2022-11-03T12:36:04;13.70;99.90
6293;DHT22;3179;54.350;10.102;2022-11-03T12:38:31;13.70;99.90
6293;DHT22;3179;54.350;10.102;2022-11-03T12:40:59;13.80;99.90
6293;DHT22;3179;54.350;10.102;2022-11-03T12:43:46;13.80;99.90
6293;DHT22;3179;54.350;10.102;2022-11-03T12:46:14;13.80;99.90
6293;DHT22;3179;54.350;10.102;2022-11-03T12:48:40;13.80;99.90
6293;DHT22;3179;54.350;10.102;2022-11-03T12:51:10;13.80;99.90
6293;DHT22;3179;54.350;10.102;2022-11-03T12:53:37;13.80;99.90
6293;DHT22;3179;54.350;10.102;2022-11-03T12:56:05;13.80;99.90
6293;DHT22;3179;54.350;10.102;2022-11-03T12:58:32;13.80;99.90
6293;DHT22;3179;54.350;10.102;2022-11-03T13:00:59;13.80;99.90
6293;DHT22;3179;54.350;10.102;2022-11-03T13:03:26;13.70;99.90
6293;DHT22;3179;54.350;10.102;2022-11-03T13:05:53;13.70;99.90
6293;DHT22;3179;54.350;10.102;2022-11-03T13:08:20;13.70;99.90
6293;DHT22;3179;54.350;10.102;2022-11-03T13:10:47;13.70;99.90
6293;DHT22;3179;54.350;10.102;2022-11-03T13:13:15;13.80;99.90
6293;DHT22;3179;54.350;10.102;2022-11-03T13:15:42;13.80;99.90
6293;DHT22;3179;54.350;10.102;2022-11-03T13:18:09;13.80;99.90
6293;DHT22;3179;54.350;10.102;2022-11-03T13:20:36;13.80;99.90
6293;DHT22;3179;54.350;10.102;2022-11-03T13:23:03;13.80;99.90
6293;DHT22;3179;54.350;10.102;2022-11-03T13:25:30;13.90;99.90
6293;DHT22;3179;54.350;10.102;2022-11-03T13:27:57;13.90;99.90
6293;DHT22;3179;54.350;10.102;2022-11-03T13:30:26;13.90;99.90
6293;DHT22;3179;54.350;10.102;2022-11-03T13:32:52;14.00;99.90
6293;DHT22;3179;54.350;10.102;2022-11-03T13:35:19;14.00;99.90
6293;DHT22;3179;54.350;10.102;2022-11-03T13:37:46;14.00;99.90
6293;DHT22;3179;54.350;10.102;2022-11-03T13:40:14;14.10;99.90
6293;DHT22;3179;54.350;10.102;2022-11-03T13:42:41;14.10;99.90
6293;DHT22;3179;54.350;10.102;2022-11-03T13:45:09;14.10;99.90
6293;DHT22;3179;54.350;10.102;2022-11-03T13:47:38;14.10;99.90
6293;DHT22;3179;54.350;10.102;2022-11-03T13:50:05;14.10;99.90
6293;DHT22;3179;54.350;10.102;2022-11-03T13:52:32;14.10;99.90
6293;DHT22;3179;54.350;10.102;2022-11-03T13:54:59;14.10;99.90
6293;DHT22;3179;54.350;10.102;2022-11-03T13:57:25;14.10;99.90
6293;DHT22;3179;54.350;10.102;2022-11-03T13:59:52;14.10;99.90
6293;DHT22;3179;54.350;10.102;2022-11-03T14:02:19;14.10;99.90
6293;DHT22;3179;54.350;10.102;2022-11-03T14:04:47;14.10;99.90
6293;DHT22;3179;54.350;10.102;2022-11-03T14:07:14;14.10;99.90
6293;DHT22;3179;54.350;10.102;2022-11-03T14:09:41;14.10;99.90
6293;DHT22;3179;54.350;10.102;2022-11-03T14:12:07;14.10;99.90
6293;DHT22;3179;54.350;10.102;2022-11-03T14:14:52;14.10;99.90
6293;DHT22;3179;54.350;10.102;2022-11-03T14:17:18;14.10;99.90
6293;DHT22;3179;54.350;10.102;2022-11-03T14:19:47;14.10;99.90
6293;DHT22;3179;54.350;10.102;2022-11-03T14:22:13;14.10;99.90
6293;DHT22;3179;54.350;10.102;2022-11-03T14:24:40;14.10;99.90
6293;DHT22;3179;54.350;10.102;2022-11-03T14:27:07;14.10;99.90
6293;DHT22;3179;54.350;10.102;2022-11-03T14:29:34;14.10;99.90
6293;DHT22;3179;54.350;10.102;2022-11-03T14:32:00;14.10;99.90
6293;DHT22;3179;54.350;10.102;2022-11-03T14:34:27;14.10;99.90
6293;DHT22;3179;54.350;10.102;2022-11-03T14:36:55;14.10;99.90
6293;DHT22;3179;54.350;10.102;2022-11-03T14:39:22;14.10;99.90
6293;DHT22;3179;54.350;10.102;2022-11-03T14:41:49;14.10;99.90
6293;DHT22;3179;54.350;10.102;2022-11-03T14:44:31;14.10;99.90
6293;DHT22;3179;54.350;10.102;2022-11-03T14:46:58;14.00;99.90
6293;DHT22;3179;54.350;10.102;2022-11-03T14:49:26;14.00;99.90
6293;DHT22;3179;54.350;10.102;2022-11-03T14:51:53;14.00;99.90
6293;DHT22;3179;54.350;10.102;2022-11-03T14:54:22;14.00;99.90
6293;DHT22;3179;54.350;10.102;2022-11-03T14:56:49;14.00;99.90
6293;DHT22;3179;54.350;10.102;2022-11-03T14:59:16;14.00;99.90
6293;DHT22;3179;54.350;10.102;2022-11-03T15:01:43;14.00;99.90
6293;DHT22;3179;54.350;10.102;2022-11-03T15:04:10;14.00;99.90
6293;DHT22;3179;54.350;10.102;2022-11-03T15:06:38;13.90;99.90
6293;DHT22;3179;54.350;10.102;2022-11-03T15:09:05;13.90;99.90
6293;DHT22;3179;54.350;10.102;2022-11-03T15:11:33;13.90;99.90
6293;DHT22;3179;54.350;10.102;2022-11-03T15:14:00;13.90;99.90
6293;DHT22;3179;54.350;10.102;2022-11-03T15:16:27;13.90;99.90
6293;DHT22;3179;54.350;10.102;2022-11-03T15:18:54;13.90;99.90
6293;DHT22;3179;54.350;10.102;2022-11-03T15:21:20;13.90;99.90
6293;DHT22;3179;54.350;10.102;2022-11-03T15:23:47;13.80;99.90
6293;DHT22;3179;54.350;10.102;2022-11-03T15:26:14;13.80;99.90
6293;DHT22;3179;54.350;10.102;2022-11-03T15:28:42;13.80;99.90
6293;DHT22;3179;54.350;10.102;2022-11-03T15:31:09;13.80;99.90
6293;DHT22;3179;54.350;10.102;2022-11-03T15:33:35;13.80;99.90
6293;DHT22;3179;54.350;10.102;2022-11-03T15:36:03;13.80;99.90
6293;DHT22;3179;54.350;10.102;2022-11-03T15:38:31;13.80;99.90
6293;DHT22;3179;54.350;10.102;2022-11-03T15:40:58;13.70;99.90
6293;DHT22;3179;54.350;10.102;2022-11-03T15:43:39;13.70;99.90
6293;DHT22;3179;54.350;10.102;2022-11-03T15:46:07;13.70;99.90
6293;DHT22;3179;54.350;10.102;2022-11-03T15:48:36;13.70;99.90
6293;DHT22;3179;54.350;10.102;2022-11-03T15:51:03;13.70;99.90
6293;DHT22;3179;54.350;10.102;2022-11-03T15:53:30;13.70;99.90
6293;DHT22;3179;54.350;10.102;2022-11-03T15:55:57;13.70;99.90
6293;DHT22;3179;54.350;10.102;2022-11-03T15:58:24;13.70;99.90
6293;DHT22;3179;54.350;10.102;2022-11-03T16:00:51;13.70;99.90
6293;DHT22;3179;54.350;10.102;2022-11-03T16:03:19;13.70;99.90
6293;DHT22;3179;54.350;10.102;2022-11-03T16:05:46;13.70;99.90
6293;DHT22;3179;54.350;10.102;2022-11-03T16:08:12;13.70;99.90